Time;durP1;ratioP1;P1;durP2;ratioP2;P2;SDS_P1;SDS_P2;PMS_P1;PMS_P2;Temp;Humidity;BMP_temperature;BMP_pressure;BME280_temperature;BME280_humidity;BME280_pressure;Samples;Min_cycle;Max_cycle;Signal;HPM_P1;HPM_P2
2021/12/29 00:01:47;;;;;;;;;14.25;4.25;;;;;10.66;100.00;100432.16;4973232;28;44999;-83
2021/12/29 00:04:13;;;;;;;;;7.00;1.50;;;;;10.67;100.00;100438.31;4967175;28;45396;-84
2021/12/29 00:06:38;;;;;;;;;14.25;9.25;;;;;10.64;100.00;100447.38;4960098;28;44795;-86
2021/12/29 00:09:04;;;;;;;;;12.00;4.25;;;;;10.66;100.00;100449.91;4959862;28;44872;-82
2021/12/29 00:11:29;;;;;;;;;10.50;7.50;;;;;10.70;100.00;100446.06;4959274;28;45427;-83
2021/12/29 00:13:55;;;;;;;;;12.00;7.50;;;;;10.67;100.00;100449.78;4959495;28;44903;-83
2021/12/29 00:16:20;;;;;;;;;7.75;3.75;;;;;10.64;100.00;100465.97;4965081;28;45211;-83
2021/12/29 00:18:46;;;;;;;;;9.75;4.00;;;;;10.65;100.00;100462.34;4965061;28;44861;-84
2021/12/29 00:21:14;;;;;;;;;10.25;6.75;;;;;10.66;100.00;100468.50;4963524;28;45124;-84
2021/12/29 00:23:39;;;;;;;;;9.60;7.80;;;;;10.67;100.00;100456.91;4967771;28;44807;-83
2021/12/29 00:26:05;;;;;;;;;10.00;7.00;;;;;10.67;100.00;100480.81;4967684;28;45417;-82
2021/12/29 00:28:31;;;;;;;;;9.20;7.00;;;;;10.64;100.00;100505.81;4965550;28;45365;-82
2021/12/29 00:30:56;;;;;;;;;8.00;6.50;;;;;10.65;100.00;100511.97;4962651;28;44963;-83
2021/12/29 00:33:22;;;;;;;;;15.25;5.50;;;;;10.65;100.00;100509.31;4962045;28;45405;-83
2021/12/29 00:35:48;;;;;;;;;7.75;5.00;;;;;10.65;100.00;100509.31;4964026;28;45089;-83
2021/12/29 00:38:14;;;;;;;;;7.00;2.75;;;;;10.66;100.00;100516.31;4965040;28;45300;-82
2021/12/29 00:40:40;;;;;;;;;7.80;6.80;;;;;10.70;100.00;100521.31;4961466;28;45268;-83
2021/12/29 00:43:08;;;;;;;;;15.25;8.75;;;;;10.69;100.00;100508.13;4963901;28;45372;-83
2021/12/29 00:45:36;;;;;;;;;16.00;8.40;;;;;10.70;100.00;100531.09;4963869;28;45438;-83
2021/12/29 00:48:04;;;;;;;;;7.80;6.40;;;;;10.66;100.00;100522.47;4961689;28;45201;-83
2021/12/29 00:50:33;;;;;;;;;12.40;10.40;;;;;10.65;100.00;100528.75;4959024;28;45528;-83
2021/12/29 00:52:59;;;;;;;;;12.20;8.40;;;;;10.66;100.00;100538.41;4959546;28;45369;-82
2021/12/29 00:55:25;;;;;;;;;18.20;12.60;;;;;10.66;100.00;100533.09;4961276;28;44848;-82
2021/12/29 00:57:51;;;;;;;;;14.60;10.00;;;;;10.67;100.00;100534.78;4961337;28;45431;-82
2021/12/29 01:00:20;;;;;;;;;17.00;9.20;;;;;10.73;100.00;100536.16;4960432;28;45145;-83
2021/12/29 01:02:45;;;;;;;;;15.80;9.80;;;;;10.74;100.00;100524.59;4960884;28;45390;-81
2021/12/29 01:05:12;;;;;;;;;14.00;11.00;;;;;10.78;100.00;100528.72;4962728;28;45378;-81
2021/12/29 01:07:37;;;;;;;;;9.50;7.25;;;;;10.75;100.00;100521.81;4963821;28;44801;-81
2021/12/29 01:10:05;;;;;;;;;8.25;5.00;;;;;10.75;100.00;100519.16;4964176;28;45036;-83
2021/12/29 01:12:30;;;;;;;;;9.60;8.60;;;;;10.77;100.00;100525.22;4959591;28;45395;-83
2021/12/29 01:14:58;;;;;;;;;14.00;9.25;;;;;10.80;100.00;100534.78;4960507;28;45406;-82
2021/12/29 01:17:24;;;;;;;;;9.00;6.00;;;;;10.80;100.00;100542.75;4960152;28;45266;-83
2021/12/29 01:19:53;;;;;;;;;12.60;7.20;;;;;10.79;100.00;100544.56;4959069;28;46568;-83
2021/12/29 01:22:20;;;;;;;;;10.60;7.60;;;;;10.76;100.00;100541.25;4960222;28;45016;-83
2021/12/29 01:24:46;;;;;;;;;6.40;5.40;;;;;10.80;100.00;100545.41;4959159;28;45311;-84
2021/12/29 01:27:13;;;;;;;;;9.60;6.80;;;;;10.77;100.00;100557.09;4959178;28;44823;-81
2021/12/29 01:29:38;;;;;;;;;12.00;7.60;;;;;10.82;100.00;100554.97;4960388;28;44984;-83
2021/12/29 01:32:05;;;;;;;;;10.00;7.00;;;;;10.88;100.00;100550.16;4962670;28;45269;-83
2021/12/29 01:34:31;;;;;;;;;10.80;7.80;;;;;10.90;100.00;100537.63;4966733;28;45315;-81
2021/12/29 01:36:56;;;;;;;;;12.25;7.00;;;;;10.90;100.00;100542.94;4968109;28;44764;-82
2021/12/29 01:39:24;;;;;;;;;10.25;5.00;;;;;10.91;100.00;100541.97;4962909;28;45039;-81
2021/12/29 01:41:52;;;;;;;;;17.00;6.40;;;;;10.85;100.00;100542.44;4959913;28;45395;-80
2021/12/29 01:44:21;;;;;;;;;5.80;3.60;;;;;10.82;100.00;100539.00;4959890;28;44712;-80
2021/12/29 01:46:47;;;;;;;;;10.20;5.80;;;;;10.79;100.00;100547.22;4959432;28;44897;-80
2021/12/29 01:49:13;;;;;;;;;9.75;5.75;;;;;10.82;100.00;100540.81;4960761;28;45064;-81
2021/12/29 01:51:49;;;;;;;;;11.40;4.00;;;;;10.77;100.00;100537.66;4962093;28;44751;-80
2021/12/29 01:54:23;;;;;;;;;7.60;6.40;;;;;10.77;100.00;100551.78;4961269;28;45476;-80
2021/12/29 01:56:53;;;;;;;;;15.60;8.20;;;;;10.79;100.00;100557.00;4960146;28;44738;-80
2021/12/29 01:59:19;;;;;;;;;10.20;8.00;;;;;10.81;100.00;100555.91;4958585;28;46820;-79
2021/12/29 02:01:45;;;;;;;;;10.20;7.00;;;;;10.81;100.00;100557.72;4958205;28;45409;-80
2021/12/29 02:04:10;;;;;;;;;10.25;7.25;;;;;10.82;100.00;100557.63;4958426;28;44819;-79
2021/12/29 02:06:36;;;;;;;;;8.75;6.25;;;;;10.83;100.00;100569.13;4959704;28;45301;-80
2021/12/29 02:09:03;;;;;;;;;7.80;6.20;;;;;10.81;100.00;100573.69;4959356;28;45464;-80
2021/12/29 02:11:30;;;;;;;;;12.60;7.20;;;;;10.79;100.00;100572.94;4959424;28;45446;-80
2021/12/29 02:14:00;;;;;;;;;6.00;6.00;;;;;10.80;100.00;100572.81;4959347;28;45339;-80
2021/12/29 02:16:26;;;;;;;;;7.50;5.00;;;;;10.83;100.00;100569.13;4958045;28;44995;-80
2021/12/29 02:18:57;;;;;;;;;8.60;6.00;;;;;10.82;100.00;100564.75;4959602;28;45271;-78
2021/12/29 02:21:26;;;;;;;;;13.20;6.00;;;;;10.82;100.00;100560.28;4959280;28;45395;-80
2021/12/29 02:26:31;;;;;;;;;7.40;4.20;;;;;10.87;100.00;100567.06;4959065;28;45498;-81
2021/12/29 02:28:57;;;;;;;;;7.40;3.40;;;;;10.89;100.00;100559.84;4960123;28;45370;-80
2021/12/29 02:31:24;;;;;;;;;8.20;6.00;;;;;10.86;100.00;100566.22;4960494;28;45474;-81
2021/12/29 02:33:51;;;;;;;;;6.00;4.00;;;;;10.87;100.00;100565.25;4962088;28;44729;-81
2021/12/29 02:36:17;;;;;;;;;11.25;6.25;;;;;10.87;100.00;100570.56;4967513;28;44779;-80
2021/12/29 02:38:48;;;;;;;;;9.25;7.00;;;;;10.86;100.00;100574.19;4969081;28;45572;-80
2021/12/29 02:41:13;;;;;;;;;9.40;5.20;;;;;10.91;100.00;100573.88;4963322;28;45223;-81
2021/12/29 02:43:40;;;;;;;;;10.25;6.75;;;;;10.89;100.00;100567.84;4962021;28;44708;-81
2021/12/29 02:46:11;;;;;;;;;8.75;7.25;;;;;10.91;100.00;100565.91;4959163;28;44767;-81
2021/12/29 02:48:41;;;;;;;;;7.60;5.40;;;;;10.90;100.00;100565.06;4959075;28;45263;-80
2021/12/29 02:51:08;;;;;;;;;9.60;6.20;;;;;10.92;100.00;100557.81;4959126;28;44691;-79
2021/12/29 02:53:35;;;;;;;;;14.80;7.80;;;;;10.92;100.00;100554.31;4958945;28;44772;-80
2021/12/29 02:56:01;;;;;;;;;6.40;2.40;;;;;10.94;100.00;100558.56;4959067;28;45433;-80
2021/12/29 02:58:27;;;;;;;;;8.20;5.20;;;;;10.96;100.00;100553.13;4958689;28;45096;-80
2021/12/29 03:00:55;;;;;;;;;9.25;2.75;;;;;10.97;100.00;100561.00;4959007;28;45332;-80
2021/12/29 03:03:23;;;;;;;;;7.20;3.80;;;;;10.98;100.00;100570.69;4959040;28;45396;-80
2021/12/29 03:05:50;;;;;;;;;7.00;5.75;;;;;10.98;100.00;100559.22;4958828;28;45458;-79
2021/12/29 03:08:17;;;;;;;;;10.40;6.40;;;;;10.98;100.00;100562.72;4958224;28;45031;-80
2021/12/29 03:10:43;;;;;;;;;7.40;4.20;;;;;10.98;100.00;100551.22;4957021;28;44816;-80
2021/12/29 03:13:09;;;;;;;;;6.80;5.20;;;;;10.97;100.00;100558.31;4958405;28;45231;-81
2021/12/29 03:15:36;;;;;;;;;9.80;4.80;;;;;10.98;100.00;100559.22;4958107;28;45586;-80
2021/12/29 03:18:03;;;;;;;;;9.20;6.40;;;;;10.98;100.00;100557.41;4958446;28;45449;-81
2021/12/29 03:20:30;;;;;;;;;9.80;6.00;;;;;10.98;100.00;100556.56;4960023;28;45338;-80
2021/12/29 03:22:56;;;;;;;;;3.80;3.80;;;;;10.97;100.00;100561.00;4961429;28;45387;-79
2021/12/29 03:25:22;;;;;;;;;8.00;5.60;;;;;10.95;100.00;100554.09;4957392;28;45380;-79
2021/12/29 03:27:47;;;;;;;;;11.00;6.25;;;;;10.95;100.00;100559.41;4957311;28;45111;-79
2021/12/29 03:30:13;;;;;;;;;10.50;4.00;;;;;10.94;100.00;100563.03;4957581;28;44721;-80
2021/12/29 03:32:48;;;;;;;;;14.50;6.75;;;;;10.92;100.00;100567.59;4957472;28;45061;-80
2021/12/29 03:35:14;;;;;;;;;9.00;5.20;;;;;10.92;100.00;100568.44;4961684;28;45327;-80
2021/12/29 03:37:40;;;;;;;;;3.50;3.50;;;;;10.91;100.00;100576.53;4964134;28;45516;-80
2021/12/29 03:40:06;;;;;;;;;11.80;5.60;;;;;10.88;100.00;100577.63;4963062;28;45363;-80
2021/12/29 03:42:32;;;;;;;;;11.40;6.60;;;;;10.84;100.00;100575.28;4963801;28;44774;-80
2021/12/29 03:44:59;;;;;;;;;15.50;5.75;;;;;10.85;100.00;100569.00;4961841;28;45411;-80
2021/12/29 03:47:24;;;;;;;;;5.80;3.60;;;;;10.85;100.00;100566.34;4957090;28;45293;-80
2021/12/29 03:49:50;;;;;;;;;4.75;4.00;;;;;10.87;100.00;100559.09;4956046;28;45474;-81
2021/12/29 03:52:17;;;;;;;;;4.00;4.00;;;;;10.86;100.00;100568.03;4957427;28;45481;-81
2021/12/29 03:54:42;;;;;;;;;3.40;3.40;;;;;10.84;100.00;100562.00;4956695;28;45330;-80
2021/12/29 03:57:08;;;;;;;;;3.75;2.00;;;;;10.85;100.00;100564.53;4957201;28;45774;-80
2021/12/29 03:59:33;;;;;;;;;8.75;2.50;;;;;10.82;100.00;100543.47;4957544;28;45297;-79
2021/12/29 04:02:00;;;;;;;;;6.00;5.75;;;;;10.85;100.00;100553.06;4957759;28;44752;-81
2021/12/29 04:04:26;;;;;;;;;4.80;3.00;;;;;10.85;100.00;100550.41;4963276;28;45448;-80
2021/12/29 04:06:51;;;;;;;;;8.00;3.75;;;;;10.85;100.00;100548.59;4963615;28;45030;-80
2021/12/29 04:09:16;;;;;;;;;4.50;4.50;;;;;10.84;100.00;100540.75;4956554;28;44807;-80
2021/12/29 04:11:42;;;;;;;;;5.00;4.75;;;;;10.84;100.00;100546.06;4956973;28;45743;-81
2021/12/29 04:14:08;;;;;;;;;5.50;5.00;;;;;10.83;100.00;100545.22;4957038;28;45384;-81
2021/12/29 04:16:40;;;;;;;;;6.00;6.00;;;;;10.84;100.00;100560.19;4956814;28;45279;-79
2021/12/29 04:19:07;;;;;;;;;4.20;3.40;;;;;10.82;100.00;100552.31;4956513;28;45370;-81
2021/12/29 04:21:37;;;;;;;;;8.40;3.40;;;;;10.81;100.00;100557.72;4957117;28;45325;-80
2021/12/29 04:24:04;;;;;;;;;8.20;5.20;;;;;10.78;100.00;100558.81;4955282;28;45385;-81
2021/12/29 04:26:32;;;;;;;;;3.40;3.40;;;;;10.76;100.00;100562.53;4956654;28;45424;-81
2021/12/29 04:28:58;;;;;;;;;4.60;3.00;;;;;10.74;100.00;100567.09;4956620;28;45298;-81
2021/12/29 04:31:23;;;;;;;;;5.50;3.25;;;;;10.72;100.00;100567.19;4956716;28;44941;-80
2021/12/29 04:33:49;;;;;;;;;7.25;3.75;;;;;10.70;100.00;100570.94;4955910;28;44935;-80
2021/12/29 04:36:16;;;;;;;;;13.60;5.60;;;;;10.60;100.00;100573.38;4962095;28;45270;-81
2021/12/29 04:38:41;;;;;;;;;4.40;4.40;;;;;10.59;100.00;100578.78;4963718;28;44872;-81
2021/12/29 04:41:07;;;;;;;;;6.50;3.75;;;;;10.61;100.00;100574.22;4961662;28;45235;-81
2021/12/29 04:43:32;;;;;;;;;6.00;4.25;;;;;10.60;100.00;100577.84;4957936;28;45378;-81
2021/12/29 04:45:58;;;;;;;;;11.00;3.00;;;;;10.53;100.00;100578.25;4976374;28;47397;-80
2021/12/29 04:48:25;;;;;;;;;1.50;1.50;;;;;10.49;100.00;100567.94;4958525;28;44770;-81
2021/12/29 04:51:05;;;;;;;;;4.20;3.00;;;;;10.46;100.00;100565.53;4962855;28;44786;-83
2021/12/29 04:53:32;;;;;;;;;4.40;4.00;;;;;10.45;100.00;100577.09;4964832;28;44850;-81
2021/12/29 04:55:58;;;;;;;;;6.80;4.00;;;;;10.43;100.00;100568.38;4958342;28;45132;-81
2021/12/29 04:58:24;;;;;;;;;1.60;0.00;;;;;10.42;100.00;100566.69;4956620;28;45473;-80
2021/12/29 05:00:51;;;;;;;;;6.00;4.00;;;;;10.40;100.00;100564.16;4957277;28;45457;-82
2021/12/29 05:03:17;;;;;;;;;4.20;3.00;;;;;10.39;100.00;100562.41;4959939;28;45212;-81
2021/12/29 05:08:32;;;;;;;;;7.00;4.00;;;;;10.42;100.00;100562.22;4899821;29;44866;-82
2021/12/29 05:11:04;;;;;;;;;6.40;3.80;;;;;10.40;100.00;100553.53;4899902;29;44888;-81
2021/12/29 05:13:32;;;;;;;;;6.80;3.40;;;;;10.42;100.00;100556.91;4900241;29;44993;-83
2021/12/29 05:15:58;;;;;;;;;4.60;1.00;;;;;10.42;100.00;100553.41;4899572;29;45561;-81
2021/12/29 05:18:26;;;;;;;;;3.75;3.50;;;;;10.44;100.00;100544.41;4899820;29;44746;-82
2021/12/29 05:20:53;;;;;;;;;3.40;3.00;;;;;10.45;100.00;100545.25;4899632;29;44873;-82
2021/12/29 05:23:18;;;;;;;;;5.80;4.00;;;;;10.47;100.00;100546.81;4899932;29;44876;-81
2021/12/29 05:25:44;;;;;;;;;6.50;5.25;;;;;10.47;100.00;100548.63;4883671;29;45504;-82
2021/12/29 05:28:10;;;;;;;;;5.50;4.25;;;;;10.48;100.00;100542.34;4900501;29;45317;-82
2021/12/29 05:30:36;;;;;;;;;6.00;4.00;;;;;10.46;100.00;100545.13;4900933;29;45387;-81
2021/12/29 05:33:03;;;;;;;;;5.75;5.00;;;;;10.47;100.00;100535.34;4886495;29;45426;-83
2021/12/29 05:35:29;;;;;;;;;6.20;5.00;;;;;10.48;100.00;100542.34;4902518;29;46657;-82
2021/12/29 05:37:55;;;;;;;;;5.00;4.00;;;;;10.48;100.00;100537.03;4904928;29;44915;-81
2021/12/29 05:40:21;;;;;;;;;6.60;4.00;;;;;10.50;100.00;100543.13;4902827;29;44724;-81
2021/12/29 05:42:46;;;;;;;;;5.25;5.25;;;;;10.51;100.00;100540.34;4903920;29;45358;-82
2021/12/29 05:45:13;;;;;;;;;6.25;4.00;;;;;10.50;100.00;100533.34;4924074;28;46485;-83
2021/12/29 05:47:39;;;;;;;;;7.60;4.20;;;;;10.49;100.00;100538.72;4957925;28;45442;-82
2021/12/29 05:50:07;;;;;;;;;7.60;5.00;;;;;10.50;100.00;100540.47;4957420;28;45351;-81
2021/12/29 05:52:33;;;;;;;;;7.80;5.60;;;;;10.52;100.00;100533.22;4958883;28;45664;-81
2021/12/29 05:54:58;;;;;;;;;7.25;6.00;;;;;10.52;100.00;100519.94;4959425;28;45200;-82
2021/12/29 05:57:23;;;;;;;;;7.75;6.00;;;;;10.50;100.00;100525.38;4958851;28;44734;-82
2021/12/29 05:59:49;;;;;;;;;5.00;5.00;;;;;10.53;100.00;100517.16;4959074;28;45450;-82
2021/12/29 06:02:14;;;;;;;;;6.75;5.00;;;;;10.52;100.00;100518.13;4957683;28;45248;-82
2021/12/29 06:04:41;;;;;;;;;6.75;5.00;;;;;10.51;100.00;100519.09;4958654;28;45382;-81
2021/12/29 06:07:07;;;;;;;;;6.40;6.40;;;;;10.50;100.00;100517.41;4958753;28;44772;-83
2021/12/29 06:09:32;;;;;;;;;5.75;5.50;;;;;10.50;100.00;100520.06;4959098;28;45314;-82
2021/12/29 06:11:57;;;;;;;;;8.75;6.00;;;;;10.52;100.00;100518.13;4958806;28;44703;-82
2021/12/29 06:14:23;;;;;;;;;10.00;8.00;;;;;10.50;100.00;100506.78;4959473;28;45347;-82
2021/12/29 06:16:50;;;;;;;;;5.25;5.25;;;;;10.49;100.00;100520.13;4963590;28;44737;-82
2021/12/29 06:19:15;;;;;;;;;12.20;5.80;;;;;10.49;100.00;100513.06;4972975;28;44827;-81
2021/12/29 06:21:41;;;;;;;;;9.75;8.25;;;;;10.48;100.00;100513.97;4967385;28;45365;-82
2021/12/29 06:24:07;;;;;;;;;8.50;8.00;;;;;10.48;100.00;100515.78;4964469;28;45101;-82
2021/12/29 06:26:34;;;;;;;;;27.33;23.67;;;;;10.48;100.00;100524.59;4959619;28;44829;-81
2021/12/29 06:28:59;;;;;;;;;53.33;44.00;;;;;10.48;100.00;100531.72;4958686;28;44915;-82
2021/12/29 06:31:25;;;;;;;;;20.50;14.00;;;;;10.52;100.00;100511.97;4961028;28;45532;-82
2021/12/29 06:33:51;;;;;;;;;13.50;12.50;;;;;10.55;100.00;100525.88;4962078;28;46785;-83
2021/12/29 06:36:16;;;;;;;;;10.00;10.00;;;;;10.59;100.00;100521.22;4960635;28;45312;-82
2021/12/29 06:38:42;;;;;;;;;8.75;6.25;;;;;10.55;100.00;100533.00;4964323;28;45411;-82
2021/12/29 06:41:07;;;;;;;;;8.00;7.75;;;;;10.53;100.00;100533.09;4963504;28;44827;-82
2021/12/29 06:43:32;;;;;;;;;5.00;5.00;;;;;10.53;100.00;100525.13;4957592;28;46248;-81
2021/12/29 06:45:58;;;;;;;;;6.50;6.50;;;;;10.55;100.00;100523.25;4956808;28;45484;-82
2021/12/29 06:48:24;;;;;;;;;9.75;7.25;;;;;10.55;100.00;100520.59;4957968;28;45080;-82
2021/12/29 06:50:49;;;;;;;;;7.00;7.00;;;;;10.59;100.00;100533.63;4974513;28;45461;-83
2021/12/29 06:53:14;;;;;;;;;6.75;6.00;;;;;10.61;100.00;100531.72;4977217;28;45568;-81
2021/12/29 06:55:42;;;;;;;;;9.25;8.00;;;;;10.63;100.00;100528.00;4977828;28;44855;-83
2021/12/29 06:58:08;;;;;;;;;7.60;7.60;;;;;10.64;100.00;100521.75;4960792;28;44884;-82
2021/12/29 07:00:33;;;;;;;;;8.00;8.00;;;;;10.65;100.00;100520.78;4978387;28;45208;-82
2021/12/29 07:02:59;;;;;;;;;10.00;8.25;;;;;10.66;100.00;100530.44;4980700;28;45453;-81
2021/12/29 07:05:25;;;;;;;;;6.75;6.75;;;;;10.63;100.00;100516.50;4963019;28;45340;-83
2021/12/29 07:07:52;;;;;;;;;7.00;7.00;;;;;10.63;100.00;100525.34;4979248;28;44846;-82
2021/12/29 07:10:18;;;;;;;;;9.50;8.75;;;;;10.63;100.00;100516.50;4960749;28;45357;-82
2021/12/29 07:12:43;;;;;;;;;8.75;8.00;;;;;10.62;100.00;100512.16;4977270;28;45153;-82
2021/12/29 07:15:09;;;;;;;;;2.25;1.75;;;;;10.62;100.00;100522.78;4977221;28;44770;-83
2021/12/29 07:17:34;;;;;;;;;8.25;7.75;;;;;10.64;100.00;100521.75;4959622;28;44839;-83
2021/12/29 07:20:00;;;;;;;;;7.25;7.25;;;;;10.64;100.00;100516.44;4959263;28;45387;-82
2021/12/29 07:22:25;;;;;;;;;14.00;11.00;;;;;10.66;100.00;100519.81;4975612;28;46272;-82
2021/12/29 07:24:51;;;;;;;;;15.25;11.75;;;;;10.65;100.00;100519.94;4958521;28;45360;-82
2021/12/29 07:27:16;;;;;;;;;19.25;14.75;;;;;10.65;100.00;100520.78;4959823;28;45504;-82
2021/12/29 07:29:42;;;;;;;;;8.75;8.75;;;;;10.68;100.00;100527.66;4977334;28;45159;-83
2021/12/29 07:32:08;;;;;;;;;9.75;9.75;;;;;10.68;100.00;100525.84;4977105;28;45430;-82
2021/12/29 07:34:34;;;;;;;;;7.50;7.00;;;;;10.68;100.00;100523.19;4960136;28;45231;-83
2021/12/29 07:37:00;;;;;;;;;15.40;11.20;;;;;10.67;100.00;100520.66;4962904;28;45204;-84
2021/12/29 07:39:25;;;;;;;;;15.50;14.00;;;;;10.70;100.00;100517.81;4967059;28;44990;-83
2021/12/29 07:41:51;;;;;;;;;12.00;12.00;;;;;10.71;100.00;100528.31;4966255;28;46694;-81
2021/12/29 07:44:18;;;;;;;;;10.00;9.00;;;;;10.72;100.00;100529.16;4977065;28;45350;-82
2021/12/29 07:47:12;;;;;;;;;8.40;7.80;;;;;10.69;100.00;100526.72;5041313;23;45454;-82
2021/12/29 07:53:40;;;;;;;;;8.60;8.40;;;;;10.70;100.00;100542.56;4954769;28;45347;-82
2021/12/29 07:56:53;;;;;;;;;9.20;9.20;;;;;10.73;100.00;100549.44;4954815;28;45651;-84
2021/12/29 07:59:31;;;;;;;;;8.80;7.60;;;;;10.74;100.00;100545.84;4950821;28;45549;-83
2021/12/29 08:02:08;;;;;;;;;8.50;8.50;;;;;10.72;100.00;100542.44;4938184;28;45491;-85
2021/12/29 08:04:34;;;;;;;;;6.25;6.25;;;;;10.75;100.00;100536.91;4938225;28;45531;-83
2021/12/29 08:07:03;;;;;;;;;8.25;7.25;;;;;10.76;100.00;100536.81;4942839;28;44877;-83
2021/12/29 08:09:28;;;;;;;;;8.20;8.20;;;;;10.78;100.00;100542.00;4946526;28;44725;-82
2021/12/29 08:11:53;;;;;;;;;10.25;10.25;;;;;10.82;100.00;100549.66;4947866;28;44853;-81
2021/12/29 08:14:19;;;;;;;;;11.25;8.00;;;;;10.83;100.00;100553.19;4948427;28;45183;-82
2021/12/29 08:16:44;;;;;;;;;6.50;6.00;;;;;10.85;100.00;100553.91;4945198;28;45309;-81
2021/12/29 08:19:10;;;;;;;;;8.50;7.75;;;;;10.88;100.00;100552.81;4955421;28;44734;-83
2021/12/29 08:21:35;;;;;;;;;12.00;10.00;;;;;10.82;100.00;100570.06;4957567;28;45470;-82
2021/12/29 08:24:01;;;;;;;;;12.00;11.25;;;;;10.82;100.00;100560.28;4955358;28;46563;-83
2021/12/29 08:26:27;;;;;;;;;10.50;9.25;;;;;10.85;100.00;100569.00;4973520;28;44844;-82
2021/12/29 08:28:54;;;;;;;;;14.75;13.75;;;;;10.88;100.00;100577.63;4965130;28;44742;-82
2021/12/29 08:31:19;;;;;;;;;10.60;9.40;;;;;10.90;100.00;100588.13;4966547;28;44935;-82
2021/12/29 08:33:45;;;;;;;;;11.00;11.00;;;;;10.90;100.00;100573.03;4968648;28;44918;-81
2021/12/29 08:36:10;;;;;;;;;11.00;9.50;;;;;10.96;100.00;100582.38;4977536;28;45296;-82
2021/12/29 08:38:36;;;;;;;;;12.25;12.00;;;;;10.95;100.00;100586.84;4966290;28;45541;-84
2021/12/29 08:41:02;;;;;;;;;8.50;8.50;;;;;10.95;100.00;100589.50;4981371;28;44879;-83
2021/12/29 08:43:27;;;;;;;;;12.80;12.00;;;;;10.99;100.00;100579.50;4980395;28;45429;-83
2021/12/29 08:45:53;;;;;;;;;10.50;9.50;;;;;11.04;100.00;100577.38;4960330;28;45366;-83
2021/12/29 08:48:19;;;;;;;;;11.50;10.75;;;;;11.09;100.00;100579.69;4903905;28;45511;-82
2021/12/29 08:50:44;;;;;;;;;12.00;10.00;;;;;11.10;100.00;100566.28;4916314;28;44836;-84
2021/12/29 08:53:10;;;;;;;;;13.00;10.00;;;;;11.14;100.00;100567.78;4919706;28;45450;-83
2021/12/29 08:55:37;;;;;;;;;11.50;11.50;;;;;11.19;100.00;100573.59;4936272;28;45377;-82
2021/12/29 08:58:06;;;;;;;;;9.80;9.80;;;;;11.22;100.00;100572.53;4919589;28;44745;-83
2021/12/29 09:00:32;;;;;;;;;9.75;9.75;;;;;11.31;100.00;100570.06;4920147;28;44794;-83
2021/12/29 09:02:58;;;;;;;;;11.80;10.80;;;;;11.37;100.00;100566.13;4919761;28;47913;-83
2021/12/29 09:05:23;;;;;;;;;7.50;7.50;;;;;11.43;100.00;100563.00;4920028;28;45572;-84
2021/12/29 09:07:49;;;;;;;;;11.50;11.25;;;;;11.46;100.00;100564.56;4920012;28;45425;-82
2021/12/29 09:10:18;;;;;;;;;14.75;12.50;;;;;11.51;100.00;100568.63;4920485;28;44870;-83
2021/12/29 09:12:47;;;;;;;;;11.40;10.00;;;;;11.58;100.00;100564.53;4920348;28;46369;-83
2021/12/29 09:15:16;;;;;;;;;17.60;16.60;;;;;11.61;100.00;100565.28;4927095;28;45263;-83
2021/12/29 09:17:41;;;;;;;;;10.60;10.20;;;;;11.64;100.00;100562.38;4925372;28;44826;-83
2021/12/29 09:20:14;;;;;;;;;14.50;12.75;;;;;11.70;100.00;100561.91;4920250;28;44994;-83
2021/12/29 09:22:40;;;;;;;;;10.80;10.80;;;;;11.72;100.00;100554.66;4920099;28;45469;-83
2021/12/29 09:25:07;;;;;;;;;14.75;13.25;;;;;11.78;100.00;100555.06;4919817;28;45499;-83
2021/12/29 09:27:32;;;;;;;;;17.40;14.80;;;;;11.83;100.00;100568.91;4919655;28;44760;-83
2021/12/29 09:29:58;;;;;;;;;14.75;14.75;;;;;11.86;100.00;100549.19;4920022;28;44921;-84
2021/12/29 09:32:29;;;;;;;;;14.25;14.25;;;;;11.91;100.00;100557.69;4920582;28;45384;-85
2021/12/29 09:34:57;;;;;;;;;12.80;10.40;;;;;11.83;100.00;100568.91;4920178;28;45413;-83
2021/12/29 09:37:23;;;;;;;;;13.60;11.80;;;;;11.90;100.00;100579.94;4920768;28;45516;-83
2021/12/29 09:39:48;;;;;;;;;14.75;14.50;;;;;11.94;100.00;100561.91;4926265;28;45008;-84
2021/12/29 09:42:14;;;;;;;;;14.25;11.50;;;;;12.04;100.00;100566.44;4926968;28;44965;-83
2021/12/29 09:44:39;;;;;;;;;18.50;16.25;;;;;12.13;100.00;100551.56;4921849;28;45468;-82
2021/12/29 09:47:06;;;;;;;;;15.00;15.00;;;;;12.22;100.00;100561.50;4918784;28;44888;-84
2021/12/29 09:49:34;;;;;;;;;16.50;15.00;;;;;12.32;100.00;100551.84;4920847;28;44973;-84
2021/12/29 09:51:59;;;;;;;;;16.40;14.00;;;;;12.39;100.00;100546.91;4920777;28;46788;-83
2021/12/29 09:54:24;;;;;;;;;13.00;11.00;;;;;12.46;100.00;100553.44;4920432;28;45266;-84
2021/12/29 09:56:50;;;;;;;;;11.75;11.75;;;;;12.48;100.00;100548.88;4920695;28;45056;-83
2021/12/29 09:59:15;;;;;;;;;15.25;13.75;;;;;12.49;100.00;100545.22;4925980;28;44960;-84
2021/12/29 10:01:41;;;;;;;;;9.50;9.50;;;;;12.56;100.00;100556.25;4924395;28;46584;-83
2021/12/29 10:04:07;;;;;;;;;15.75;13.75;;;;;12.59;100.00;100556.84;4920447;28;45368;-82
2021/12/29 10:06:32;;;;;;;;;13.40;13.40;;;;;12.63;100.00;100557.47;4918967;28;44767;-82
2021/12/29 10:09:12;;;;;;;;;16.50;15.00;;;;;12.67;100.00;100550.94;4919047;28;44883;-84
2021/12/29 10:11:39;;;;;;;;;20.75;19.50;;;;;12.71;100.00;100543.53;4918374;28;45672;-82
2021/12/29 10:14:12;;;;;;;;;12.80;12.80;;;;;12.76;100.00;100552.84;4919882;28;44820;-83
2021/12/29 10:16:38;;;;;;;;;14.00;13.60;;;;;12.79;100.00;100546.44;4918757;28;44873;-82
2021/12/29 10:19:07;;;;;;;;;15.00;15.00;;;;;12.88;100.00;100558.19;4918969;28;44801;-84
2021/12/29 10:21:35;;;;;;;;;10.80;10.80;;;;;12.92;100.00;100549.84;4918530;28;47049;-82
2021/12/29 10:24:02;;;;;;;;;12.20;10.60;;;;;12.95;100.00;100549.56;4918772;28;45328;-83
2021/12/29 10:26:31;;;;;;;;;15.40;14.00;;;;;13.03;100.00;100554.31;4918276;28;45336;-82
2021/12/29 10:29:08;;;;;;;;;14.80;11.60;;;;;13.08;100.00;100560.97;4918662;28;44861;-83
2021/12/29 10:31:38;;;;;;;;;16.60;15.60;;;;;13.12;100.00;100561.56;4918420;28;46858;-84
2021/12/29 10:34:09;;;;;;;;;18.60;13.40;;;;;13.13;100.00;100569.44;4918506;28;45354;-83
2021/12/29 10:36:55;;;;;;;;;15.60;13.40;;;;;13.16;100.00;100568.38;4918381;28;45460;-82
2021/12/29 10:39:24;;;;;;;;;11.20;11.20;;;;;13.22;100.00;100573.22;4925873;28;44949;-83
2021/12/29 10:42:09;;;;;;;;;18.40;15.40;;;;;13.24;100.00;100570.41;4930110;28;46837;-82
2021/12/29 10:44:37;;;;;;;;;12.00;10.60;;;;;13.26;100.00;100571.16;4931089;28;44859;-82
2021/12/29 11:02:43;;;;;;;;;4.20;3.00;;;;;13.48;100.00;100596.94;4897769;29;45574;-84
2021/12/29 11:06:05;;;;;;;;;3.40;3.40;;;;;13.59;100.00;100621.81;4880080;29;44898;-84
2021/12/29 11:08:47;;;;;;;;;2.20;2.20;;;;;13.62;100.00;100612.69;4852844;29;46933;-83
2021/12/29 11:11:47;;;;;;;;;3.60;3.00;;;;;13.65;100.00;100615.09;4878906;29;45512;-85
2021/12/29 11:15:01;;;;;;;;;2.40;1.80;;;;;13.72;100.00;100620.78;4879297;29;44684;-83
2021/12/29 11:18:30;;;;;;;;;1.60;1.60;;;;;13.80;100.00;100615.66;4821919;29;45638;-84
2021/12/29 11:26:33;;;;;;;;;;;;;;;;;;;;;
2021/12/29 11:36:13;;;;;;;;;0.60;0.60;;;;;14.28;100.00;100613.41;4732952;30;44880;-83
2021/12/29 11:41:33;;;;;;;;;1.40;1.40;;;;;14.37;100.00;100623.31;4737227;30;45437;-83
2021/12/29 11:44:15;;;;;;;;;0.20;0.20;;;;;14.39;100.00;100634.72;4723515;29;45411;-82
2021/12/29 11:57:56;;;;;;;;;1.60;0.80;;;;;14.78;100.00;100618.09;4702379;30;45533;-84
2021/12/29 12:00:49;;;;;;;;;1.00;0.80;;;;;14.82;100.00;100617.69;4731998;29;46877;-83
2021/12/29 12:03:18;;;;;;;;;1.20;0.00;;;;;14.88;100.00;100608.28;4771165;29;45379;-83
2021/12/29 12:06:23;;;;;;;;;0.00;0.00;;;;;14.93;100.00;100618.59;4787192;29;45628;-85
2021/12/29 12:13:24;;;;;;;;;1.00;1.00;;;;;14.94;100.00;100630.97;4717877;30;45679;-82
2021/12/29 12:16:19;;;;;;;;;1.00;1.00;;;;;14.89;100.00;100639.41;4683012;30;45568;-84